createdAt,value
2019-03-13T00:00:34.932Z,1002.55
2019-03-13T00:01:34.909Z,1002.54
2019-03-13T00:02:34.883Z,1002.47
2019-03-13T00:03:34.861Z,1002.49
2019-03-13T00:04:34.842Z,1002.56
2019-03-13T00:05:34.820Z,1002.49
2019-03-13T00:06:34.847Z,1002.5
2019-03-13T00:07:34.771Z,1002.5
2019-03-13T00:08:34.748Z,1002.52
2019-03-13T00:09:34.731Z,1002.48
2019-03-13T00:10:34.709Z,1002.53
2019-03-13T00:11:34.687Z,1002.52
2019-03-13T00:12:34.660Z,1002.6
2019-03-13T00:13:34.642Z,1002.51
2019-03-13T00:14:34.620Z,1002.55
2019-03-13T00:15:34.598Z,1002.57
2019-03-13T00:16:34.570Z,1002.57
2019-03-13T00:17:34.549Z,1002.5
2019-03-13T00:18:34.532Z,1002.55
2019-03-13T00:19:34.508Z,1002.5
2019-03-13T00:20:34.481Z,1002.49
2019-03-13T00:21:34.457Z,1002.47
2019-03-13T00:22:34.441Z,1002.47
2019-03-13T00:23:34.417Z,1002.51
2019-03-13T00:24:34.395Z,1002.5
2019-03-13T00:25:34.371Z,1002.57
2019-03-13T00:26:34.354Z,1002.55
2019-03-13T00:27:34.325Z,1002.6
2019-03-13T00:28:34.307Z,1002.64
2019-03-13T00:29:34.281Z,1002.64
2019-03-13T00:30:34.265Z,1002.71
2019-03-13T00:31:34.237Z,1002.61
2019-03-13T00:32:34.220Z,1002.67
2019-03-13T00:33:34.197Z,1002.64
2019-03-13T00:34:34.170Z,1002.63
2019-03-13T00:35:34.155Z,1002.61
2019-03-13T00:36:34.129Z,1002.5
2019-03-13T00:37:34.108Z,1002.57
2019-03-13T00:38:34.079Z,1002.52
2019-03-13T00:39:34.058Z,1002.47
2019-03-13T00:40:34.036Z,1002.47
2019-03-13T00:41:34.017Z,1002.53
2019-03-13T00:42:33.991Z,1002.58
2019-03-13T00:43:33.974Z,1002.6
2019-03-13T00:44:33.950Z,1002.62
2019-03-13T00:45:33.929Z,1002.6
2019-03-13T00:46:33.905Z,1002.54
2019-03-13T00:47:33.884Z,1002.61
2019-03-13T00:48:33.858Z,1002.55
2019-03-13T00:49:33.836Z,1002.56
2019-03-13T00:50:33.831Z,1002.62
2019-03-13T00:51:36.791Z,1002.61
2019-03-13T00:52:33.768Z,1002.58
2019-03-13T00:53:33.746Z,1002.56
2019-03-13T00:54:33.728Z,1002.54
2019-03-13T00:55:33.707Z,1002.59
2019-03-13T00:56:33.682Z,1002.53
2019-03-13T00:57:33.657Z,1002.56
2019-03-13T00:58:33.640Z,1002.59
2019-03-13T00:59:33.614Z,1002.56
2019-03-13T01:00:33.594Z,1002.57
2019-03-13T01:01:33.566Z,1002.49
2019-03-13T01:02:33.545Z,1002.49
2019-03-13T01:03:33.522Z,1002.5
2019-03-13T01:04:33.506Z,1002.5
2019-03-13T01:05:33.483Z,1002.49
2019-03-13T01:06:33.456Z,1002.53
2019-03-13T01:07:33.432Z,1002.47
2019-03-13T01:08:33.416Z,1002.49
2019-03-13T01:09:33.393Z,1002.5
2019-03-13T01:10:33.367Z,1002.6
2019-03-13T01:11:33.345Z,1002.63
2019-03-13T01:12:33.322Z,1002.53
2019-03-13T01:13:33.304Z,1002.54
2019-03-13T01:14:33.275Z,1002.5
2019-03-13T01:15:33.261Z,1002.55
2019-03-13T01:16:33.234Z,1002.5
2019-03-13T01:17:33.215Z,1002.55
2019-03-13T01:18:33.192Z,1002.47
2019-03-13T01:19:33.170Z,1002.44
2019-03-13T01:20:33.143Z,1002.52
2019-03-13T01:21:33.121Z,1002.48
2019-03-13T01:22:33.102Z,1002.46
2019-03-13T01:23:33.083Z,1002.53
2019-03-13T01:24:33.056Z,1002.5
2019-03-13T01:25:33.034Z,1002.43
2019-03-13T01:26:33.013Z,1002.42
2019-03-13T01:27:33.014Z,1002.45
2019-03-13T01:28:32.969Z,1002.42
2019-03-13T01:29:32.944Z,1002.45
2019-03-13T01:30:32.924Z,1002.47
2019-03-13T01:31:32.897Z,1002.44
2019-03-13T01:32:32.880Z,1002.54
2019-03-13T01:33:32.851Z,1002.5
2019-03-13T01:34:32.830Z,1002.47
2019-03-13T01:35:32.842Z,1002.47
2019-03-13T01:36:32.789Z,1002.51
2019-03-13T01:37:32.767Z,1002.55
2019-03-13T01:38:32.741Z,1002.5
2019-03-13T01:39:32.718Z,1002.55
2019-03-13T01:40:32.711Z,1002.49
2019-03-13T01:41:32.677Z,1002.44
2019-03-13T01:42:32.651Z,1002.42
2019-03-13T01:43:32.631Z,1002.44
2019-03-13T01:44:32.606Z,1002.52
2019-03-13T01:45:32.589Z,1002.5
2019-03-13T01:46:32.564Z,1002.58
2019-03-13T01:47:32.546Z,1002.48
2019-03-13T01:48:32.517Z,1002.48
2019-03-13T01:49:32.499Z,1002.48
2019-03-13T01:50:32.482Z,1002.44
2019-03-13T01:51:32.458Z,1002.41
2019-03-13T01:52:32.476Z,1002.45
2019-03-13T01:53:32.406Z,1002.36
2019-03-13T01:54:32.387Z,1002.41
2019-03-13T01:55:32.365Z,1002.4
2019-03-13T01:56:32.338Z,1002.4
2019-03-13T01:57:32.316Z,1002.38
2019-03-13T01:58:32.297Z,1002.35
2019-03-13T01:59:32.276Z,1002.32
2019-03-13T02:00:32.253Z,1002.31
2019-03-13T02:01:32.227Z,1002.39
2019-03-13T02:02:32.211Z,1002.4
2019-03-13T02:03:32.181Z,1002.29
2019-03-13T02:04:32.170Z,1002.31
2019-03-13T02:05:32.136Z,1002.34
2019-03-13T02:06:32.115Z,1002.38
2019-03-13T02:07:32.093Z,1002.26
2019-03-13T02:08:32.076Z,1002.32
2019-03-13T02:09:32.052Z,1002.32
2019-03-13T02:10:32.026Z,1002.37
2019-03-13T02:11:32.004Z,1002.37
2019-03-13T02:12:32.040Z,1002.32
2019-03-13T02:13:31.966Z,1002.26
2019-03-13T02:14:31.939Z,1002.27
2019-03-13T02:15:31.930Z,1002.32
2019-03-13T02:16:31.891Z,1002.27
2019-03-13T02:17:31.874Z,1002.28
2019-03-13T02:18:31.847Z,1002.17
2019-03-13T02:19:31.829Z,1002.23
2019-03-13T02:20:31.801Z,1002.12
2019-03-13T02:21:31.784Z,1002.13
2019-03-13T02:22:31.761Z,1002.13
2019-03-13T02:23:31.740Z,1002.16
2019-03-13T02:24:31.713Z,1002.19
2019-03-13T02:25:31.691Z,1002.15
2019-03-13T02:26:31.672Z,1002.18
2019-03-13T02:27:31.649Z,1002.13
2019-03-13T02:28:31.623Z,1002.19
2019-03-13T02:29:31.601Z,1002.17
2019-03-13T02:30:31.584Z,1002.15
2019-03-13T02:31:31.560Z,1002.08
2019-03-13T02:32:31.537Z,1002.11
2019-03-13T02:33:31.512Z,1002.09
2019-03-13T02:34:31.494Z,1002.07
2019-03-13T02:35:31.467Z,1002.1
2019-03-13T02:36:31.449Z,1002.08
2019-03-13T02:37:31.422Z,1002.03
2019-03-13T02:38:31.400Z,1002.12
2019-03-13T02:39:31.429Z,1002.04
2019-03-13T02:40:31.360Z,1002.12
2019-03-13T02:41:31.387Z,1002.13
2019-03-13T02:42:31.316Z,1002.11
2019-03-13T02:43:31.287Z,1002.13
2019-03-13T02:44:31.272Z,1002.21
2019-03-13T02:45:31.250Z,1002.1
2019-03-13T02:46:31.220Z,1002.09
2019-03-13T02:47:31.199Z,1002.18
2019-03-13T02:48:31.178Z,1002.2
2019-03-13T02:49:31.164Z,1002.17
2019-03-13T02:50:31.131Z,1002.15
2019-03-13T02:51:31.112Z,1002.16
2019-03-13T02:52:31.087Z,1002.15
2019-03-13T02:53:31.069Z,1002.12
2019-03-13T02:54:31.046Z,1002.16
2019-03-13T02:55:31.023Z,1002.14
2019-03-13T02:56:30.996Z,1002.05
2019-03-13T02:57:30.973Z,1002.11
2019-03-13T02:58:30.958Z,1002.02
2019-03-13T02:59:30.933Z,1002.07
2019-03-13T03:00:30.906Z,1002.07
2019-03-13T03:01:30.883Z,1002.04
2019-03-13T03:02:30.869Z,1001.97
2019-03-13T03:03:30.845Z,1001.98
2019-03-13T03:04:30.821Z,1001.99
2019-03-13T03:05:30.794Z,1001.97
2019-03-13T03:06:30.777Z,1002.01
2019-03-13T03:07:30.750Z,1001.91
2019-03-13T03:08:30.731Z,1001.93
2019-03-13T03:09:30.706Z,1001.92
2019-03-13T03:10:30.683Z,1001.98
2019-03-13T03:11:30.659Z,1001.94
2019-03-13T03:12:30.642Z,1001.97
2019-03-13T03:13:30.653Z,1001.96
2019-03-13T03:14:30.592Z,1002.03
2019-03-13T03:15:30.569Z,1001.97
2019-03-13T03:16:30.551Z,1001.93
2019-03-13T03:17:30.528Z,1001.9
2019-03-13T03:18:30.519Z,1001.94
2019-03-13T03:19:30.481Z,1001.94
2019-03-13T03:20:30.460Z,1001.9
2019-03-13T03:21:30.475Z,1002
2019-03-13T03:22:30.419Z,1001.89
2019-03-13T03:23:30.392Z,1001.88
2019-03-13T03:24:30.372Z,1001.86
2019-03-13T03:25:30.346Z,1001.87
2019-03-13T03:26:30.324Z,1001.91
2019-03-13T03:27:30.310Z,1001.87
2019-03-13T03:28:30.288Z,1001.99
2019-03-13T03:29:30.262Z,1001.94
2019-03-13T03:30:30.233Z,1001.98
2019-03-13T03:31:30.213Z,1001.92
2019-03-13T03:32:30.194Z,1001.92
2019-03-13T03:33:30.177Z,1001.87
2019-03-13T03:34:30.143Z,1001.89
2019-03-13T03:35:30.120Z,1001.94
2019-03-13T03:36:30.099Z,1001.85
2019-03-13T03:37:30.082Z,1001.84
2019-03-13T03:38:30.070Z,1001.86
2019-03-13T03:39:30.043Z,1001.88
2019-03-13T03:40:30.011Z,1001.86
2019-03-13T03:41:29.998Z,1001.79
2019-03-13T03:42:29.970Z,1001.8
2019-03-13T03:43:39.694Z,1001.86
2019-03-13T03:44:29.921Z,1001.83
2019-03-13T03:45:29.898Z,1001.86
2019-03-13T03:46:29.883Z,1001.91
2019-03-13T03:47:29.858Z,1001.85
2019-03-13T03:48:29.898Z,1001.84
2019-03-13T03:49:29.812Z,1001.9
2019-03-13T03:50:29.791Z,1001.8
2019-03-13T03:51:29.767Z,1001.87
2019-03-13T03:52:29.744Z,1001.86
2019-03-13T03:53:29.737Z,1001.85
2019-03-13T03:54:29.700Z,1001.79
2019-03-13T03:55:29.673Z,1001.76
2019-03-13T03:56:29.655Z,1001.76
2019-03-13T03:57:29.631Z,1001.82
2019-03-13T03:58:30.089Z,1001.79
2019-03-13T03:59:29.584Z,1001.93
2019-03-13T04:00:29.565Z,1001.87
2019-03-13T04:01:29.543Z,1001.9
2019-03-13T04:02:29.518Z,1001.85
2019-03-13T04:03:29.505Z,1001.85
2019-03-13T04:04:29.483Z,1001.92
2019-03-13T04:05:29.454Z,1001.91
2019-03-13T04:06:29.429Z,1001.97
2019-03-13T04:07:29.404Z,1001.85
2019-03-13T04:08:29.383Z,1001.87
2019-03-13T04:09:29.364Z,1001.8
2019-03-13T04:10:29.336Z,1001.9
2019-03-13T04:11:29.326Z,1001.93
2019-03-13T04:12:29.314Z,1001.95
2019-03-13T04:13:29.274Z,1001.99
2019-03-13T04:14:29.264Z,1001.92
2019-03-13T04:15:29.231Z,1001.99
2019-03-13T04:16:29.203Z,1001.96
2019-03-13T04:17:29.180Z,1001.9
2019-03-13T04:18:29.172Z,1001.96
2019-03-13T04:19:29.140Z,1002.05
2019-03-13T04:20:29.113Z,1002
2019-03-13T04:21:29.094Z,1002.07
2019-03-13T04:22:29.075Z,1001.99
2019-03-13T04:23:29.051Z,1002.06
2019-03-13T04:24:29.026Z,1001.99
2019-03-13T04:25:29.003Z,1002.06
2019-03-13T04:26:28.985Z,1002.03
2019-03-13T04:27:28.955Z,1002.07
2019-03-13T04:28:28.939Z,1002.06
2019-03-13T04:29:28.912Z,1002.02
2019-03-13T04:30:28.887Z,1002.05
2019-03-13T04:31:28.888Z,1002.03
2019-03-13T04:32:28.847Z,1002.05
2019-03-13T04:33:28.911Z,1001.95
2019-03-13T04:34:28.799Z,1002.02
2019-03-13T04:35:28.902Z,1001.98
2019-03-13T04:36:28.755Z,1001.98
2019-03-13T04:37:28.739Z,1001.98
2019-03-13T04:38:28.710Z,1001.95
2019-03-13T04:39:28.685Z,1001.95
2019-03-13T04:40:28.663Z,1001.93
2019-03-13T04:41:28.645Z,1001.94
2019-03-13T04:42:28.621Z,1001.95
2019-03-13T04:43:28.599Z,1001.85
2019-03-13T04:44:28.575Z,1001.85
2019-03-13T04:45:28.556Z,1001.86
2019-03-13T04:46:28.533Z,1001.9
2019-03-13T04:47:28.510Z,1001.78
2019-03-13T04:48:28.482Z,1001.9
2019-03-13T04:49:28.461Z,1001.89
2019-03-13T04:50:28.442Z,1001.8
2019-03-13T04:51:28.420Z,1001.9
2019-03-13T04:52:28.393Z,1001.82
2019-03-13T04:53:28.371Z,1001.83
2019-03-13T04:54:28.460Z,1001.95
2019-03-13T04:55:28.330Z,1001.83
2019-03-13T04:56:28.308Z,1001.91
2019-03-13T04:57:28.280Z,1001.89
2019-03-13T04:58:28.264Z,1001.96
2019-03-13T04:59:28.236Z,1001.88
2019-03-13T05:00:28.218Z,1001.97
2019-03-13T05:01:28.190Z,1001.94
2019-03-13T05:02:28.168Z,1001.88
2019-03-13T05:03:28.146Z,1001.91
2019-03-13T05:04:28.129Z,1001.88
2019-03-13T05:05:28.105Z,1001.88
2019-03-13T05:06:28.178Z,1001.85
2019-03-13T05:07:28.056Z,1001.82
2019-03-13T05:08:28.042Z,1001.96
2019-03-13T05:09:28.032Z,1001.91
2019-03-13T05:10:27.989Z,1002.07
2019-03-13T05:11:27.967Z,1001.95
2019-03-13T05:12:27.943Z,1001.96
2019-03-13T05:13:27.926Z,1001.93
2019-03-13T05:14:27.916Z,1001.95
2019-03-13T05:15:27.908Z,1002.02
2019-03-13T05:16:27.860Z,1002.05
2019-03-13T05:17:27.837Z,1001.97
2019-03-13T05:18:27.815Z,1001.96
2019-03-13T05:19:27.791Z,1001.91
2019-03-13T05:20:27.764Z,1001.91
2019-03-13T05:21:27.742Z,1001.87
2019-03-13T05:22:27.725Z,1001.89
2019-03-13T05:23:27.702Z,1001.85
2019-03-13T05:24:27.675Z,1001.92
2019-03-13T05:25:27.655Z,1001.94
2019-03-13T05:26:27.634Z,1001.87
2019-03-13T05:27:27.612Z,1001.87
2019-03-13T05:28:27.592Z,1001.86
2019-03-13T05:29:27.565Z,1001.95
2019-03-13T05:30:27.544Z,1001.87
2019-03-13T05:31:27.518Z,1001.89
2019-03-13T05:32:27.510Z,1001.86
2019-03-13T05:33:27.473Z,1001.88
2019-03-13T05:34:27.542Z,1001.88
2019-03-13T05:35:27.431Z,1001.86
2019-03-13T05:36:27.410Z,1001.81
2019-03-13T05:37:27.387Z,1001.79
2019-03-13T05:38:27.360Z,1001.65
2019-03-13T05:39:27.362Z,1001.75
2019-03-13T05:40:27.324Z,1001.67
2019-03-13T05:41:27.297Z,1001.78
2019-03-13T05:42:27.270Z,1001.77
2019-03-13T05:43:27.248Z,1001.88
2019-03-13T05:44:27.225Z,1001.71
2019-03-13T05:45:27.207Z,1001.7
2019-03-13T05:46:27.181Z,1001.73
2019-03-13T05:47:27.163Z,1001.74
2019-03-13T05:48:27.135Z,1001.73
2019-03-13T05:49:27.118Z,1001.73
2019-03-13T05:50:27.096Z,1001.8
2019-03-13T05:51:27.073Z,1001.75
2019-03-13T05:52:27.046Z,1001.67
2019-03-13T05:53:27.024Z,1001.77
2019-03-13T05:54:27.013Z,1001.74
2019-03-13T05:55:26.984Z,1001.69
2019-03-13T05:56:26.956Z,1001.72
2019-03-13T05:57:26.934Z,1001.88
2019-03-13T05:58:26.916Z,1001.82
2019-03-13T05:59:26.913Z,1001.94
2019-03-13T06:00:26.876Z,1001.73
2019-03-13T06:01:26.850Z,1001.68
2019-03-13T06:02:26.936Z,1001.81
2019-03-13T06:03:26.799Z,1001.7
2019-03-13T06:04:26.781Z,1001.83
2019-03-13T06:05:26.754Z,1001.8
2019-03-13T06:06:26.732Z,1001.73
2019-03-13T06:07:26.708Z,1001.75
2019-03-13T06:08:26.692Z,1001.81
2019-03-13T06:09:26.670Z,1001.83
2019-03-13T06:10:26.642Z,1001.74
2019-03-13T06:11:26.620Z,1001.75
2019-03-13T06:12:26.602Z,1001.74
2019-03-13T06:13:26.580Z,1001.74
2019-03-13T06:14:26.553Z,1001.67
2019-03-13T06:15:26.530Z,1001.69
2019-03-13T06:16:26.507Z,1001.62
2019-03-13T06:17:26.490Z,1001.7
2019-03-13T06:18:26.461Z,1001.68
2019-03-13T06:19:26.445Z,1001.71
2019-03-13T06:20:26.418Z,1001.75
2019-03-13T06:21:26.399Z,1001.74
2019-03-13T06:22:26.379Z,1001.66
2019-03-13T06:23:26.374Z,1001.73
2019-03-13T06:24:26.475Z,1001.64
2019-03-13T06:25:26.306Z,1001.72
2019-03-13T06:26:26.326Z,1001.63
2019-03-13T06:27:26.266Z,1001.74
2019-03-13T06:28:26.398Z,1001.72
2019-03-13T06:29:26.216Z,1001.66
2019-03-13T06:30:26.199Z,1001.79
2019-03-13T06:31:26.177Z,1001.82
2019-03-13T06:32:26.153Z,1001.76
2019-03-13T06:33:26.144Z,1001.8
2019-03-13T06:34:26.109Z,1001.75
2019-03-13T06:35:26.085Z,1001.73
2019-03-13T06:36:26.064Z,1001.73
2019-03-13T06:37:26.038Z,1001.89
2019-03-13T06:38:26.145Z,1001.84
2019-03-13T06:39:26.057Z,1001.83
2019-03-13T06:40:25.975Z,1001.82
2019-03-13T06:41:25.953Z,1001.85
2019-03-13T06:42:25.927Z,1001.8
2019-03-13T06:43:25.903Z,1001.82
2019-03-13T06:44:25.886Z,1001.94
2019-03-13T06:45:25.864Z,1001.75
2019-03-13T06:46:25.842Z,1001.85
2019-03-13T06:47:25.818Z,1001.84
2019-03-13T06:48:25.796Z,1001.75
2019-03-13T06:49:25.768Z,1001.81
2019-03-13T06:50:25.753Z,1001.77
2019-03-13T06:51:25.726Z,1001.73
2019-03-13T06:52:25.715Z,1001.75
2019-03-13T06:53:25.682Z,1001.71
2019-03-13T06:54:25.660Z,1001.73
2019-03-13T06:55:25.645Z,1001.7
2019-03-13T06:56:25.626Z,1001.8
2019-03-13T06:57:25.598Z,1001.65
2019-03-13T06:58:25.572Z,1001.66
2019-03-13T06:59:25.655Z,1001.72
2019-03-13T07:00:25.529Z,1001.68
2019-03-13T07:01:25.508Z,1001.68
2019-03-13T07:02:25.479Z,1001.72
2019-03-13T07:03:25.458Z,1001.68
2019-03-13T07:04:25.436Z,1001.64
2019-03-13T07:05:25.418Z,1001.63
2019-03-13T07:06:25.390Z,1001.62
2019-03-13T07:07:25.373Z,1001.58
2019-03-13T07:08:25.355Z,1001.66
2019-03-13T07:09:25.327Z,1001.54
2019-03-13T07:10:25.305Z,1001.57
2019-03-13T07:11:25.287Z,1001.63
2019-03-13T07:12:25.255Z,1001.6
2019-03-13T07:13:25.234Z,1001.59
2019-03-13T07:14:25.223Z,1001.54
2019-03-13T07:15:25.194Z,1001.55
2019-03-13T07:16:25.166Z,1001.51
2019-03-13T07:17:25.143Z,1001.57
2019-03-13T07:18:25.130Z,1001.65
2019-03-13T07:19:25.115Z,1001.57
2019-03-13T07:20:25.081Z,1001.56
2019-03-13T07:21:25.071Z,1001.53
2019-03-13T07:22:25.039Z,1001.48
2019-03-13T07:23:25.021Z,1001.49
2019-03-13T07:24:24.992Z,1001.54
2019-03-13T07:25:24.964Z,1001.49
2019-03-13T07:26:24.943Z,1001.42
2019-03-13T07:27:25.081Z,1001.5
2019-03-13T07:28:24.902Z,1001.48
2019-03-13T07:29:24.880Z,1001.41
2019-03-13T07:30:24.855Z,1001.42
2019-03-13T07:31:24.832Z,1001.49
2019-03-13T07:32:24.814Z,1001.42
2019-03-13T07:33:24.792Z,1001.41
2019-03-13T07:34:24.766Z,1001.47
2019-03-13T07:35:24.741Z,1001.44
2019-03-13T07:36:24.740Z,1001.47
2019-03-13T07:37:24.701Z,1001.49
2019-03-13T07:38:24.673Z,1001.41
2019-03-13T07:39:24.656Z,1001.43
2019-03-13T07:40:24.632Z,1001.37
2019-03-13T07:41:24.614Z,1001.5
2019-03-13T07:42:24.610Z,1001.5
2019-03-13T07:43:24.568Z,1001.5
2019-03-13T07:44:24.573Z,1001.44
2019-03-13T07:45:24.577Z,1001.45
2019-03-13T07:46:24.558Z,1001.48
2019-03-13T07:47:24.477Z,1001.47
2019-03-13T07:48:24.455Z,1001.37
2019-03-13T07:49:24.521Z,1001.48
2019-03-13T07:50:24.444Z,1001.37
2019-03-13T07:51:24.408Z,1001.4
2019-03-13T07:52:24.366Z,1001.44
2019-03-13T07:53:24.393Z,1001.5
2019-03-13T07:54:24.321Z,1001.47
2019-03-13T07:55:24.367Z,1001.56
2019-03-13T07:56:24.281Z,1001.68
2019-03-13T07:57:24.249Z,1001.56
2019-03-13T07:58:24.432Z,1001.55
2019-03-13T07:59:24.224Z,1001.56
2019-03-13T08:00:24.186Z,1001.58
2019-03-13T08:01:24.182Z,1001.51
2019-03-13T08:02:24.137Z,1001.43
2019-03-13T08:03:24.388Z,1001.56
2019-03-13T08:04:24.170Z,1001.47
2019-03-13T08:05:24.172Z,1001.45
2019-03-13T08:06:24.112Z,1001.53
2019-03-13T08:07:24.084Z,1001.55
2019-03-13T08:08:24.006Z,1001.47
2019-03-13T08:09:24.013Z,1001.4
2019-03-13T08:10:24.010Z,1001.56
2019-03-13T08:11:24.087Z,1001.42
2019-03-13T08:12:24.093Z,1001.56
2019-03-13T08:13:24.083Z,1001.63
2019-03-13T08:14:23.915Z,1001.5
2019-03-13T08:15:23.853Z,1001.52
2019-03-13T08:16:23.937Z,1001.59
2019-03-13T08:17:23.802Z,1001.56
2019-03-13T08:18:23.933Z,1001.5
2019-03-13T08:19:24.318Z,1001.45
2019-03-13T08:20:23.750Z,1001.47
2019-03-13T08:21:23.712Z,1001.44
2019-03-13T08:22:23.692Z,1001.37
2019-03-13T08:23:23.671Z,1001.46
2019-03-13T08:24:23.650Z,1001.43
2019-03-13T08:25:23.622Z,1001.43
2019-03-13T08:26:23.624Z,1001.54
2019-03-13T08:27:23.578Z,1001.52
2019-03-13T08:28:23.561Z,1001.53
2019-03-13T08:29:23.537Z,1001.45
2019-03-13T08:30:23.520Z,1001.45
2019-03-13T08:31:23.496Z,1001.42
2019-03-13T08:32:23.471Z,1001.4
2019-03-13T08:33:23.444Z,1001.3
2019-03-13T08:34:23.426Z,1001.39
2019-03-13T08:35:23.403Z,1001.38
2019-03-13T08:36:23.475Z,1001.35
2019-03-13T08:37:23.354Z,1001.51
2019-03-13T08:38:23.339Z,1001.48
2019-03-13T08:39:23.418Z,1001.41
2019-03-13T08:40:23.382Z,1001.45
2019-03-13T08:41:23.264Z,1001.41
2019-03-13T08:42:23.247Z,1001.48
2019-03-13T08:43:23.234Z,1001.42
2019-03-13T08:44:23.210Z,1001.45
2019-03-13T08:45:23.175Z,1001.39
2019-03-13T08:46:23.153Z,1001.42
2019-03-13T08:47:23.132Z,1001.47
2019-03-13T08:48:23.111Z,1001.32
2019-03-13T08:49:23.196Z,1001.38
2019-03-13T08:50:23.216Z,1001.48
2019-03-13T08:51:23.040Z,1001.45
2019-03-13T08:52:23.038Z,1001.47
2019-03-13T08:53:23.085Z,1001.35
2019-03-13T08:54:22.975Z,1001.42
2019-03-13T08:55:23.053Z,1001.45
2019-03-13T08:56:22.929Z,1001.47
2019-03-13T08:57:22.911Z,1001.4
2019-03-13T08:58:22.882Z,1001.44
2019-03-13T08:59:23.673Z,1001.44
2019-03-13T09:00:22.843Z,1001.37
2019-03-13T09:01:22.821Z,1001.35
2019-03-13T09:02:22.810Z,1001.35
2019-03-13T09:03:22.775Z,1001.38
2019-03-13T09:04:22.748Z,1001.5
2019-03-13T09:05:22.727Z,1001.34
2019-03-13T09:06:22.712Z,1001.4
2019-03-13T09:07:22.684Z,1001.38
2019-03-13T09:08:22.659Z,1001.34
2019-03-13T09:09:22.636Z,1001.41
2019-03-13T09:10:22.922Z,1001.43
2019-03-13T09:11:22.597Z,1001.21
2019-03-13T09:12:22.646Z,1001.24
2019-03-13T09:13:22.610Z,1001.28
2019-03-13T09:14:22.758Z,1001.21
2019-03-13T09:15:22.595Z,1001.2
2019-03-13T09:16:22.601Z,1001.19
2019-03-13T09:17:22.519Z,1001.17
2019-03-13T09:18:22.526Z,1001.23
2019-03-13T09:19:22.463Z,1001.15
2019-03-13T09:20:22.508Z,1001.17
2019-03-13T09:21:22.459Z,1001.2
2019-03-13T09:22:22.428Z,1001.07
2019-03-13T09:23:22.427Z,1001.13
2019-03-13T09:24:22.305Z,1001.25
2019-03-13T09:25:22.282Z,1001.13
2019-03-13T09:26:22.266Z,1001.06
2019-03-13T09:27:22.263Z,1001.18
2019-03-13T09:28:22.210Z,1001.19
2019-03-13T09:29:22.314Z,1001.19
2019-03-13T09:30:22.167Z,1001.14
2019-03-13T09:31:25.324Z,1001.25
2019-03-13T09:32:22.122Z,1001.07
2019-03-13T09:33:22.110Z,1001.11
2019-03-13T09:34:22.081Z,1001.01
2019-03-13T09:35:22.100Z,1001.05
2019-03-13T09:36:22.160Z,1001.09
2019-03-13T09:37:22.009Z,1001.21
2019-03-13T09:38:21.993Z,1001.2
2019-03-13T09:39:22.064Z,1001.14
2019-03-13T09:40:21.943Z,1001.1
2019-03-13T09:41:21.921Z,1001.07
2019-03-13T09:42:22.016Z,1001.1
2019-03-13T09:43:21.880Z,1001.19
2019-03-13T09:44:21.858Z,1001.13
2019-03-13T09:45:21.843Z,1001.13
2019-03-13T09:46:21.812Z,1001.09
2019-03-13T09:47:21.790Z,1001.1
2019-03-13T09:48:21.767Z,1001.04
2019-03-13T09:49:21.741Z,1001.17
2019-03-13T09:50:21.720Z,1001.02
2019-03-13T09:51:21.697Z,1001.05
2019-03-13T09:52:21.678Z,1001.15
2019-03-13T09:53:21.655Z,1001.11
2019-03-13T09:54:21.633Z,1001.15
2019-03-13T09:55:21.608Z,1001.06
2019-03-13T09:56:21.588Z,1001.09
2019-03-13T09:57:21.568Z,1001.01
2019-03-13T09:58:21.539Z,1001.07
2019-03-13T09:59:21.516Z,1001.06
2019-03-13T10:00:21.495Z,1001.13
2019-03-13T10:01:21.482Z,1001.1
2019-03-13T10:02:21.451Z,1001.02
2019-03-13T10:03:21.441Z,1000.98
2019-03-13T10:04:21.497Z,1000.99
2019-03-13T10:05:21.395Z,1001.14
2019-03-13T10:06:22.481Z,1001
2019-03-13T10:07:21.358Z,1001.05
2019-03-13T10:08:21.316Z,1001.17
2019-03-13T10:09:21.339Z,1001.08
2019-03-13T10:10:21.276Z,1001.02
2019-03-13T10:11:21.248Z,1001.01
2019-03-13T10:12:21.231Z,1000.85
2019-03-13T10:13:21.215Z,1001.06
2019-03-13T10:14:21.183Z,1000.95
2019-03-13T10:15:21.159Z,1000.93
2019-03-13T10:16:21.138Z,1000.93
2019-03-13T10:17:21.135Z,1000.87
2019-03-13T10:18:21.238Z,1000.88
2019-03-13T10:19:21.073Z,1000.92
2019-03-13T10:20:21.048Z,1000.96
2019-03-13T10:21:21.039Z,1001.1
2019-03-13T10:22:21.006Z,1000.97
2019-03-13T10:23:20.984Z,1000.93
2019-03-13T10:24:20.957Z,1000.98
2019-03-13T10:25:20.936Z,1000.95
2019-03-13T10:26:20.917Z,1000.9
2019-03-13T10:27:20.914Z,1000.96
2019-03-13T10:28:20.868Z,1000.97
2019-03-13T10:29:20.850Z,1000.97
2019-03-13T10:30:20.826Z,1001
2019-03-13T10:31:20.863Z,1000.92
2019-03-13T10:32:20.783Z,1000.99
2019-03-13T10:33:20.758Z,1000.96
2019-03-13T10:34:20.795Z,1000.99
2019-03-13T10:35:20.710Z,1000.97
2019-03-13T10:36:20.693Z,1000.96
2019-03-13T10:37:20.666Z,1001.02
2019-03-13T10:38:20.661Z,1000.86
2019-03-13T10:39:20.708Z,1000.94
2019-03-13T10:40:20.604Z,1000.95
2019-03-13T10:41:20.653Z,1000.94
2019-03-13T10:42:20.555Z,1000.95
2019-03-13T10:43:20.553Z,1000.95
2019-03-13T10:44:20.518Z,1000.93
2019-03-13T10:45:20.490Z,1000.95
2019-03-13T10:46:20.465Z,1000.98
2019-03-13T10:47:20.443Z,1001.02
2019-03-13T10:48:20.421Z,1000.95
2019-03-13T10:49:20.403Z,1000.92
2019-03-13T10:50:20.381Z,1000.99
2019-03-13T10:51:20.490Z,1000.83
2019-03-13T10:52:20.433Z,1000.93
2019-03-13T10:53:20.471Z,1000.83
2019-03-13T10:54:20.353Z,1000.86
2019-03-13T10:55:20.280Z,1000.78
2019-03-13T10:56:20.241Z,1000.75
2019-03-13T10:57:20.218Z,1000.79
2019-03-13T10:58:20.201Z,1000.78
2019-03-13T10:59:20.179Z,1000.78
2019-03-13T11:00:20.183Z,1000.76
2019-03-13T11:01:20.129Z,1000.78
2019-03-13T11:02:20.119Z,1000.78
2019-03-13T11:03:20.090Z,1000.72
2019-03-13T11:04:20.067Z,1000.83
2019-03-13T11:05:20.040Z,1000.77
2019-03-13T11:06:20.036Z,1000.7
2019-03-13T11:07:19.995Z,1000.79
2019-03-13T11:08:19.977Z,1000.83
2019-03-13T11:09:19.967Z,1000.91
2019-03-13T11:10:19.927Z,1000.78
2019-03-13T11:11:19.904Z,1000.77
2019-03-13T11:12:19.887Z,1000.68
2019-03-13T11:13:19.864Z,1000.7
2019-03-13T11:14:19.838Z,1000.81
2019-03-13T11:15:19.814Z,1000.79
2019-03-13T11:16:19.821Z,1000.71
2019-03-13T11:17:19.870Z,1000.73
2019-03-13T11:18:19.875Z,1000.68
2019-03-13T11:19:19.728Z,1000.69
2019-03-13T11:20:19.803Z,1000.82
2019-03-13T11:21:19.685Z,1000.74
2019-03-13T11:22:19.658Z,1000.76
2019-03-13T11:23:19.647Z,1000.86
2019-03-13T11:24:19.616Z,1000.85
2019-03-13T11:25:19.690Z,1000.88
2019-03-13T11:26:19.613Z,1000.91
2019-03-13T11:27:19.552Z,1000.87
2019-03-13T11:28:19.523Z,1000.91
2019-03-13T11:29:19.503Z,1000.92
2019-03-13T11:30:20.791Z,1000.85
2019-03-13T11:31:19.482Z,1000.92
2019-03-13T11:32:19.435Z,1000.84
2019-03-13T11:33:19.414Z,1000.78
2019-03-13T11:34:19.446Z,1000.94
2019-03-13T11:35:19.373Z,1000.82
2019-03-13T11:36:19.352Z,1000.8
2019-03-13T11:37:19.331Z,1000.82
2019-03-13T11:38:19.398Z,1000.82
2019-03-13T11:39:19.423Z,1000.85
2019-03-13T11:40:19.272Z,1000.79
2019-03-13T11:41:19.292Z,1000.92
2019-03-13T11:42:19.304Z,1000.9
2019-03-13T11:43:19.204Z,1000.82
2019-03-13T11:44:19.300Z,1000.88
2019-03-13T11:45:19.162Z,1000.92
2019-03-13T11:46:19.134Z,1000.86
2019-03-13T11:47:19.103Z,1000.83
2019-03-13T11:48:19.083Z,1000.78
2019-03-13T11:49:19.061Z,1000.8
2019-03-13T11:50:19.037Z,1000.75
2019-03-13T11:51:19.039Z,1000.77
2019-03-13T11:52:18.989Z,1000.63
2019-03-13T11:53:18.974Z,1000.83
2019-03-13T11:54:18.944Z,1000.74
2019-03-13T11:55:19.032Z,1000.71
2019-03-13T11:56:18.901Z,1000.79
2019-03-13T11:57:18.881Z,1000.72
2019-03-13T11:58:18.859Z,1000.8
2019-03-13T11:59:18.838Z,1000.64
2019-03-13T12:00:18.810Z,1000.57
2019-03-13T12:01:18.788Z,1000.62
2019-03-13T12:02:18.770Z,1000.55
2019-03-13T12:03:18.748Z,1000.57
2019-03-13T12:04:18.789Z,1000.68
2019-03-13T12:05:18.698Z,1000.63
2019-03-13T12:06:18.681Z,1000.65
2019-03-13T12:07:18.659Z,1000.61
2019-03-13T12:08:18.636Z,1000.68